KDEC

Decatur Airport

Decatur, Illinois, USA
METAR KDEC 172354Z AUTO 31007KT 10SM CLR 09/M01 A3042 RMK AO2 SLP304 T00941011 10139 20094 51015
Observed Flight Rules
Oct-17 @ 23:54 UTC (60 minutes ago) Visual Flight Rules
Wind Visibility Clouds
310° at 7 knots 10 miles
  • Clear skies
Temperatures Readings
Current 9°C / 48°F
Dewpoint -1°C / 30°F
Humidity 50%
Altimeter 30.42" Hg
Pressure 1030.4 hPa
Elevation 207
METAR KDEC 172354Z AUTO 31007KT 10SM CLR 09/M01 A3042 RMK AO2 SLP304 T00941011 10139 20094 51015
Observed Flight Rules
Oct-17 @ 23:54 UTC
(60 minutes ago)
VFR
Wind Visibility
310° at 7 knots 10 miles
Clouds
  • Clear skies
Temperature Dewpoint
9°C / 48°F -1°C / 30°F
Humidity Altimeter Pressure
50% 30.42" Hg 1030.4 hPa